PWSweather.com
Personal Weather Stations
Station Observations
KMNGREYC2
Grey Cloud Island, Grey Cloud Island, MN 55071

Grey Cloud IslandGrey Cloud Island, MN 55071

Lat: 44.799333, Lon: -92.987851

Elevation: 700

Station Type: Davis VP2

www.jagielski.com/weather/conditions.htm

High Low Average
Temperature 31.3°F-0.4°C 22.0°F-5.6°C 26.5°F-3.1°C
Dew Point 29.8°F-1.2°C 15.1°F-9.4°C 20.4°F-6.4°C
Winds 10.0 mph 16.1 kmh Calm Calm 3.0 mph W4.8 kmh W
Wind Gusts 17.0 mph27.4 kmh 4.0 mph6.4 kmh 10.0 mph16.1 kmh
Humidity 94% 70% 77%
Pressure 30.15 in1021.0 mb 29.92 in1013.2 mb -
Precipitation 0.00 in0.0 mm - -
Hour Temp Dew Point Humidity Winds Wind Gusts Pressure Precip Precip Rate Daily Precip Total
12:00 AM 31.3°F-0.4°C 29.8°F-1.2°C 94% Calm Calm 7.0 mph11.3 kmh 29.92 in1013.2 mb 0.00 in0.0 mm 0.00 in0.0 mm 0.00 in0.0 mm
12:15 AM 31.2°F-0.4°C 29.7°F-1.3°C 94% 2.0 mph SW3.2 kmh SW 5.0 mph8.0 kmh 29.92 in1013.2 mb 0.00 in0.0 mm 0.00 in0.0 mm 0.00 in0.0 mm
12:30 AM 31.2°F-0.4°C 29.7°F-1.3°C 94% 2.0 mph WSW3.2 kmh WSW 11.0 mph17.7 kmh 29.93 in1013.5 mb 0.00 in0.0 mm 0.00 in0.0 mm 0.00 in0.0 mm
12:45 AM 31.3°F-0.4°C 29.8°F-1.2°C 94% 2.0 mph W3.2 kmh W 10.0 mph16.1 kmh 29.93 in1013.5 mb 0.00 in0.0 mm 0.00 in0.0 mm 0.00 in0.0 mm
01:00 AM 31.2°F-0.4°C 29.7°F-1.3°C 94% 1.0 mph NW1.6 kmh NW 10.0 mph16.1 kmh 29.94 in1013.9 mb 0.00 in0.0 mm 0.00 in0.0 mm 0.00 in0.0 mm
01:15 AM 31.1°F-0.5°C 29.1°F-1.6°C 92% 5.0 mph W8.0 kmh W 10.0 mph16.1 kmh 29.94 in1013.9 mb 0.00 in0.0 mm 0.00 in0.0 mm 0.00 in0.0 mm
01:30 AM 31.2°F-0.4°C 28.9°F-1.7°C 91% 4.0 mph NW6.4 kmh NW 10.0 mph16.1 kmh 29.95 in1014.2 mb 0.00 in0.0 mm 0.00 in0.0 mm 0.00 in0.0 mm
01:45 AM 31.1°F-0.5°C 28.8°F-1.8°C 91% 3.0 mph NW4.8 kmh NW 8.0 mph12.9 kmh 29.95 in1014.2 mb 0.00 in0.0 mm 0.00 in0.0 mm 0.00 in0.0 mm
02:00 AM 31.1°F-0.5°C 28.5°F-1.9°C 90% 1.0 mph W1.6 kmh W 8.0 mph12.9 kmh 29.96 in1014.6 mb 0.00 in0.0 mm 0.00 in0.0 mm 0.00 in0.0 mm
02:15 AM 31.0°F-0.6°C 28.1°F-2.2°C 89% 5.0 mph WNW8.0 kmh WNW 10.0 mph16.1 kmh 29.97 in1014.9 mb 0.00 in0.0 mm 0.00 in0.0 mm 0.00 in0.0 mm
02:30 AM 30.8°F-0.7°C 27.7°F-2.4°C 88% 1.0 mph WSW1.6 kmh WSW 10.0 mph16.1 kmh 29.96 in1014.6 mb 0.00 in0.0 mm 0.00 in0.0 mm 0.00 in0.0 mm
02:45 AM 30.5°F-0.8°C 27.1°F-2.7°C 87% 4.0 mph SW6.4 kmh SW 9.0 mph14.5 kmh 29.97 in1014.9 mb 0.00 in0.0 mm 0.00 in0.0 mm 0.00 in0.0 mm
03:00 AM 30.1°F-1.1°C 26.4°F-3.1°C 86% 4.0 mph WNW6.4 kmh WNW 12.0 mph19.3 kmh 29.97 in1014.9 mb 0.00 in0.0 mm 0.00 in0.0 mm 0.00 in0.0 mm
03:15 AM 29.6°F-1.3°C 25.9°F-3.4°C 86% 5.0 mph SW8.0 kmh SW 8.0 mph12.9 kmh 29.97 in1014.9 mb 0.00 in0.0 mm 0.00 in0.0 mm 0.00 in0.0 mm
03:30 AM 29.2°F-1.6°C 25.5°F-3.6°C 86% 1.0 mph NW1.6 kmh NW 8.0 mph12.9 kmh 29.97 in1014.9 mb 0.00 in0.0 mm 0.00 in0.0 mm 0.00 in0.0 mm
03:45 AM 28.9°F-1.7°C 25.3°F-3.7°C 86% 4.0 mph WSW6.4 kmh WSW 6.0 mph9.7 kmh 29.98 in1015.2 mb 0.00 in0.0 mm 0.00 in0.0 mm 0.00 in0.0 mm
04:00 AM 28.8°F-1.8°C 25.2°F-3.8°C 86% 1.0 mph SW1.6 kmh SW 7.0 mph11.3 kmh 29.97 in1014.9 mb 0.00 in0.0 mm 0.00 in0.0 mm 0.00 in0.0 mm
04:15 AM 28.7°F-1.8°C 24.8°F-4.0°C 85% 2.0 mph SW3.2 kmh SW 7.0 mph11.3 kmh 29.97 in1014.9 mb 0.00 in0.0 mm 0.00 in0.0 mm 0.00 in0.0 mm
04:30 AM 28.5°F-1.9°C 24.3°F-4.3°C 84% 4.0 mph WSW6.4 kmh WSW 7.0 mph11.3 kmh 29.96 in1014.6 mb 0.00 in0.0 mm 0.00 in0.0 mm 0.00 in0.0 mm
04:45 AM 28.5°F-1.9°C 24.0°F-4.4°C 83% 2.0 mph WSW3.2 kmh WSW 5.0 mph8.0 kmh 29.96 in1014.6 mb 0.00 in0.0 mm 0.00 in0.0 mm 0.00 in0.0 mm
05:00 AM 28.4°F-2.0°C 23.6°F-4.7°C 82% 2.0 mph SW3.2 kmh SW 5.0 mph8.0 kmh 29.96 in1014.6 mb 0.00 in0.0 mm 0.00 in0.0 mm 0.00 in0.0 mm
05:15 AM 28.4°F-2.0°C 23.6°F-4.7°C 82% 5.0 mph SW8.0 kmh SW 6.0 mph9.7 kmh 29.95 in1014.2 mb 0.00 in0.0 mm 0.00 in0.0 mm 0.00 in0.0 mm
05:30 AM 28.4°F-2.0°C 23.6°F-4.7°C 82% 3.0 mph SW4.8 kmh SW 8.0 mph12.9 kmh 29.95 in1014.2 mb 0.00 in0.0 mm 0.00 in0.0 mm 0.00 in0.0 mm
05:45 AM 28.5°F-1.9°C 23.7°F-4.6°C 82% 1.0 mph SSW1.6 kmh SSW 7.0 mph11.3 kmh 29.96 in1014.6 mb 0.00 in0.0 mm 0.00 in0.0 mm 0.00 in0.0 mm
06:00 AM 28.6°F-1.9°C 23.5°F-4.7°C 81% 4.0 mph SSW6.4 kmh SSW 7.0 mph11.3 kmh 29.95 in1014.2 mb 0.00 in0.0 mm 0.00 in0.0 mm 0.00 in0.0 mm
06:15 AM 28.7°F-1.8°C 23.6°F-4.7°C 81% 4.0 mph SSW6.4 kmh SSW 13.0 mph20.9 kmh 29.95 in1014.2 mb 0.00 in0.0 mm 0.00 in0.0 mm 0.00 in0.0 mm
06:30 AM 28.9°F-1.7°C 23.5°F-4.7°C 80% 5.0 mph SW8.0 kmh SW 13.0 mph20.9 kmh 29.96 in1014.6 mb 0.00 in0.0 mm 0.00 in0.0 mm 0.00 in0.0 mm
06:45 AM 29.0°F-1.7°C 23.3°F-4.8°C 79% 1.0 mph W1.6 kmh W 10.0 mph16.1 kmh 29.96 in1014.6 mb 0.00 in0.0 mm 0.00 in0.0 mm 0.00 in0.0 mm
07:00 AM 28.7°F-1.8°C 21.5°F-5.8°C 74% 4.0 mph WSW6.4 kmh WSW 17.0 mph27.4 kmh 29.96 in1014.6 mb 0.00 in0.0 mm 0.00 in0.0 mm 0.00 in0.0 mm
07:15 AM 28.4°F-2.0°C 21.2°F-6.0°C 74% 5.0 mph WNW8.0 kmh WNW 14.0 mph22.5 kmh 29.96 in1014.6 mb 0.00 in0.0 mm 0.00 in0.0 mm 0.00 in0.0 mm
07:30 AM 27.8°F-2.3°C 20.6°F-6.3°C 74% 2.0 mph NW3.2 kmh NW 16.0 mph25.7 kmh 29.96 in1014.6 mb 0.00 in0.0 mm 0.00 in0.0 mm 0.00 in0.0 mm
07:45 AM 27.4°F-2.6°C 19.9°F-6.7°C 73% 2.0 mph WNW3.2 kmh WNW 11.0 mph17.7 kmh 29.96 in1014.6 mb 0.00 in0.0 mm 0.00 in0.0 mm 0.00 in0.0 mm
08:00 AM 27.2°F-2.7°C 19.7°F-6.8°C 73% 4.0 mph WNW6.4 kmh WNW 11.0 mph17.7 kmh 29.96 in1014.6 mb 0.00 in0.0 mm 0.00 in0.0 mm 0.00 in0.0 mm
08:15 AM 27.0°F-2.8°C 19.5°F-6.9°C 73% 4.0 mph WSW6.4 kmh WSW 13.0 mph20.9 kmh 29.97 in1014.9 mb 0.00 in0.0 mm 0.00 in0.0 mm 0.00 in0.0 mm
08:30 AM 26.8°F-2.9°C 19.6°F-6.9°C 74% Calm Calm 13.0 mph20.9 kmh 29.97 in1014.9 mb 0.00 in0.0 mm 0.00 in0.0 mm 0.00 in0.0 mm
08:45 AM 26.7°F-2.9°C 19.9°F-6.7°C 75% 5.0 mph W8.0 kmh W 11.0 mph17.7 kmh 29.98 in1015.2 mb 0.00 in0.0 mm 0.00 in0.0 mm 0.00 in0.0 mm
09:00 AM 26.7°F-2.9°C 19.9°F-6.7°C 75% 2.0 mph WSW3.2 kmh WSW 9.0 mph14.5 kmh 29.99 in1015.6 mb 0.00 in0.0 mm 0.00 in0.0 mm 0.00 in0.0 mm
09:15 AM 26.5°F-3.1°C 20.0°F-6.7°C 76% 1.0 mph WNW1.6 kmh WNW 13.0 mph20.9 kmh 29.99 in1015.6 mb 0.00 in0.0 mm 0.00 in0.0 mm 0.00 in0.0 mm
09:30 AM 26.3°F-3.2°C 20.1°F-6.6°C 77% 4.0 mph W6.4 kmh W 13.0 mph20.9 kmh 30.00 in1015.9 mb 0.00 in0.0 mm 0.00 in0.0 mm 0.00 in0.0 mm
09:45 AM 26.0°F-3.3°C 19.8°F-6.8°C 77% Calm Calm 13.0 mph20.9 kmh 30.00 in1015.9 mb 0.00 in0.0 mm 0.00 in0.0 mm 0.00 in0.0 mm
10:00 AM 26.0°F-3.3°C 20.1°F-6.6°C 78% 6.0 mph WSW9.7 kmh WSW 17.0 mph27.4 kmh 30.01 in1016.3 mb 0.00 in0.0 mm 0.00 in0.0 mm 0.00 in0.0 mm
10:15 AM 26.0°F-3.3°C 20.1°F-6.6°C 78% 3.0 mph W4.8 kmh W 12.0 mph19.3 kmh 30.01 in1016.3 mb 0.00 in0.0 mm 0.00 in0.0 mm 0.00 in0.0 mm
10:30 AM 26.1°F-3.3°C 20.2°F-6.6°C 78% 8.0 mph WSW12.9 kmh WSW 12.0 mph19.3 kmh 30.01 in1016.3 mb 0.00 in0.0 mm 0.00 in0.0 mm 0.00 in0.0 mm
10:45 AM 26.3°F-3.2°C 20.1°F-6.6°C 77% 5.0 mph N8.0 kmh N 15.0 mph24.1 kmh 30.01 in1016.3 mb 0.00 in0.0 mm 0.00 in0.0 mm 0.00 in0.0 mm
11:00 AM 26.3°F-3.2°C 20.1°F-6.6°C 77% 4.0 mph WSW6.4 kmh WSW 15.0 mph24.1 kmh 30.01 in1016.3 mb 0.00 in0.0 mm 0.00 in0.0 mm 0.00 in0.0 mm
11:15 AM 26.4°F-3.1°C 20.2°F-6.6°C 77% 5.0 mph WNW8.0 kmh WNW 10.0 mph16.1 kmh 30.01 in1016.3 mb 0.00 in0.0 mm 0.00 in0.0 mm 0.00 in0.0 mm
11:30 AM 26.6°F-3.0°C 19.8°F-6.8°C 75% 9.0 mph WNW14.5 kmh WNW 13.0 mph20.9 kmh 30.01 in1016.3 mb 0.00 in0.0 mm 0.00 in0.0 mm 0.00 in0.0 mm
11:45 AM 26.6°F-3.0°C 19.8°F-6.8°C 75% 3.0 mph W4.8 kmh W 13.0 mph20.9 kmh 30.01 in1016.3 mb 0.00 in0.0 mm 0.00 in0.0 mm 0.00 in0.0 mm
12:00 PM 26.7°F-2.9°C 19.5°F-6.9°C 74% 6.0 mph WNW9.7 kmh WNW 13.0 mph20.9 kmh 30.01 in1016.3 mb 0.00 in0.0 mm 0.00 in0.0 mm 0.00 in0.0 mm
12:15 PM 26.6°F-3.0°C 19.1°F-7.2°C 73% 4.0 mph WSW6.4 kmh WSW 16.0 mph25.7 kmh 30.00 in1015.9 mb 0.00 in0.0 mm 0.00 in0.0 mm 0.00 in0.0 mm
12:30 PM 26.5°F-3.1°C 19.0°F-7.2°C 73% 3.0 mph WNW4.8 kmh WNW 16.0 mph25.7 kmh 30.00 in1015.9 mb 0.00 in0.0 mm 0.00 in0.0 mm 0.00 in0.0 mm
12:45 PM 26.5°F-3.1°C 18.4°F-7.6°C 71% 7.0 mph SW11.3 kmh SW 15.0 mph24.1 kmh 30.00 in1015.9 mb 0.00 in0.0 mm 0.00 in0.0 mm 0.00 in0.0 mm
01:00 PM 26.4°F-3.1°C 18.3°F-7.6°C 71% 3.0 mph SW4.8 kmh SW 15.0 mph24.1 kmh 30.00 in1015.9 mb 0.00 in0.0 mm 0.00 in0.0 mm 0.00 in0.0 mm
01:15 PM 26.3°F-3.2°C 17.9°F-7.8°C 70% 3.0 mph W4.8 kmh W 12.0 mph19.3 kmh 30.00 in1015.9 mb 0.00 in0.0 mm 0.00 in0.0 mm 0.00 in0.0 mm
01:30 PM 26.3°F-3.2°C 18.2°F-7.7°C 71% 2.0 mph WSW3.2 kmh WSW 12.0 mph19.3 kmh 30.01 in1016.3 mb 0.00 in0.0 mm 0.00 in0.0 mm 0.00 in0.0 mm
01:45 PM 26.3°F-3.2°C 18.2°F-7.7°C 71% 2.0 mph W3.2 kmh W 8.0 mph12.9 kmh 30.01 in1016.3 mb 0.00 in0.0 mm 0.00 in0.0 mm 0.00 in0.0 mm
02:00 PM 26.2°F-3.2°C 18.4°F-7.6°C 72% Calm Calm 9.0 mph14.5 kmh 30.01 in1016.3 mb 0.00 in0.0 mm 0.00 in0.0 mm 0.00 in0.0 mm
02:15 PM 26.0°F-3.3°C 18.2°F-7.7°C 72% 4.0 mph WNW6.4 kmh WNW 9.0 mph14.5 kmh 30.01 in1016.3 mb 0.00 in0.0 mm 0.00 in0.0 mm 0.00 in0.0 mm
02:30 PM 26.0°F-3.3°C 18.2°F-7.7°C 72% 3.0 mph WNW4.8 kmh WNW 11.0 mph17.7 kmh 30.02 in1016.6 mb 0.00 in0.0 mm 0.00 in0.0 mm 0.00 in0.0 mm
02:45 PM 25.8°F-3.4°C 18.7°F-7.4°C 74% Calm Calm 12.0 mph19.3 kmh 30.03 in1016.9 mb 0.00 in0.0 mm 0.00 in0.0 mm 0.00 in0.0 mm
03:00 PM 25.9°F-3.4°C 19.1°F-7.2°C 75% 4.0 mph WSW6.4 kmh WSW 12.0 mph19.3 kmh 30.03 in1016.9 mb 0.00 in0.0 mm 0.00 in0.0 mm 0.00 in0.0 mm
03:15 PM 25.8°F-3.4°C 19.3°F-7.1°C 76% 2.0 mph W3.2 kmh W 8.0 mph12.9 kmh 30.03 in1016.9 mb 0.00 in0.0 mm 0.00 in0.0 mm 0.00 in0.0 mm
03:30 PM 25.6°F-3.6°C 18.8°F-7.3°C 75% 1.0 mph SW1.6 kmh SW 10.0 mph16.1 kmh 30.04 in1017.3 mb 0.00 in0.0 mm 0.00 in0.0 mm 0.00 in0.0 mm
03:45 PM 25.5°F-3.6°C 18.7°F-7.4°C 75% 1.0 mph WNW1.6 kmh WNW 11.0 mph17.7 kmh 30.04 in1017.3 mb 0.00 in0.0 mm 0.00 in0.0 mm 0.00 in0.0 mm
04:00 PM 25.5°F-3.6°C 18.7°F-7.4°C 75% 3.0 mph W4.8 kmh W 11.0 mph17.7 kmh 30.04 in1017.3 mb 0.00 in0.0 mm 0.00 in0.0 mm 0.00 in0.0 mm
04:15 PM 25.5°F-3.6°C 18.7°F-7.4°C 75% 4.0 mph WNW6.4 kmh WNW 9.0 mph14.5 kmh 30.04 in1017.3 mb 0.00 in0.0 mm 0.00 in0.0 mm 0.00 in0.0 mm
04:30 PM 25.4°F-3.7°C 18.0°F-7.8°C 73% 4.0 mph WNW6.4 kmh WNW 9.0 mph14.5 kmh 30.05 in1017.6 mb 0.00 in0.0 mm 0.00 in0.0 mm 0.00 in0.0 mm
04:45 PM 25.2°F-3.8°C 17.5°F-8.1°C 72% 2.0 mph W3.2 kmh W 9.0 mph14.5 kmh 30.06 in1017.9 mb 0.00 in0.0 mm 0.00 in0.0 mm 0.00 in0.0 mm
05:00 PM 25.1°F-3.8°C 17.7°F-7.9°C 73% Calm Calm 9.0 mph14.5 kmh 30.06 in1017.9 mb 0.00 in0.0 mm 0.00 in0.0 mm 0.00 in0.0 mm
05:15 PM 24.9°F-3.9°C 17.5°F-8.1°C 73% Calm Calm 7.0 mph11.3 kmh 30.06 in1017.9 mb 0.00 in0.0 mm 0.00 in0.0 mm 0.00 in0.0 mm
05:30 PM 24.7°F-4.1°C 17.0°F-8.3°C 72% 3.0 mph WNW4.8 kmh WNW 9.0 mph14.5 kmh 30.07 in1018.3 mb 0.00 in0.0 mm 0.00 in0.0 mm 0.00 in0.0 mm
05:45 PM 24.5°F-4.2°C 17.1°F-8.3°C 73% 4.0 mph W6.4 kmh W 6.0 mph9.7 kmh 30.07 in1018.3 mb 0.00 in0.0 mm 0.00 in0.0 mm 0.00 in0.0 mm
06:00 PM 24.5°F-4.2°C 16.5°F-8.6°C 71% 10.0 mph W16.1 kmh W 12.0 mph19.3 kmh 30.08 in1018.6 mb 0.00 in0.0 mm 0.00 in0.0 mm 0.00 in0.0 mm
06:15 PM 24.2°F-4.3°C 15.8°F-9.0°C 70% 1.0 mph WNW1.6 kmh WNW 11.0 mph17.7 kmh 30.08 in1018.6 mb 0.00 in0.0 mm 0.00 in0.0 mm 0.00 in0.0 mm
06:30 PM 23.9°F-4.5°C 15.6°F-9.1°C 70% Calm Calm 11.0 mph17.7 kmh 30.09 in1019.0 mb 0.00 in0.0 mm 0.00 in0.0 mm 0.00 in0.0 mm
06:45 PM 23.7°F-4.6°C 15.7°F-9.1°C 71% Calm Calm 4.0 mph6.4 kmh 30.09 in1019.0 mb 0.00 in0.0 mm 0.00 in0.0 mm 0.00 in0.0 mm
07:00 PM 23.6°F-4.7°C 15.9°F-8.9°C 72% 2.0 mph NW3.2 kmh NW 4.0 mph6.4 kmh 30.09 in1019.0 mb 0.00 in0.0 mm 0.00 in0.0 mm 0.00 in0.0 mm
07:15 PM 23.5°F-4.7°C 16.1°F-8.8°C 73% Calm Calm 5.0 mph8.0 kmh 30.09 in1019.0 mb 0.00 in0.0 mm 0.00 in0.0 mm 0.00 in0.0 mm
07:30 PM 23.5°F-4.7°C 16.1°F-8.8°C 73% 3.0 mph NW4.8 kmh NW 5.0 mph8.0 kmh 30.09 in1019.0 mb 0.00 in0.0 mm 0.00 in0.0 mm 0.00 in0.0 mm
07:45 PM 23.6°F-4.7°C 16.2°F-8.8°C 73% Calm Calm 5.0 mph8.0 kmh 30.10 in1019.3 mb 0.00 in0.0 mm 0.00 in0.0 mm 0.00 in0.0 mm
08:00 PM 23.6°F-4.7°C 15.6°F-9.1°C 71% 4.0 mph WNW6.4 kmh WNW 9.0 mph14.5 kmh 30.10 in1019.3 mb 0.00 in0.0 mm 0.00 in0.0 mm 0.00 in0.0 mm
08:15 PM 23.5°F-4.7°C 15.2°F-9.3°C 70% 1.0 mph WNW1.6 kmh WNW 9.0 mph14.5 kmh 30.10 in1019.3 mb 0.00 in0.0 mm 0.00 in0.0 mm 0.00 in0.0 mm
08:30 PM 23.4°F-4.8°C 15.1°F-9.4°C 70% 3.0 mph WNW4.8 kmh WNW 9.0 mph14.5 kmh 30.10 in1019.3 mb 0.00 in0.0 mm 0.00 in0.0 mm 0.00 in0.0 mm
08:45 PM 23.3°F-4.8°C 15.3°F-9.3°C 71% Calm Calm 9.0 mph14.5 kmh 30.11 in1019.6 mb 0.00 in0.0 mm 0.00 in0.0 mm 0.00 in0.0 mm
09:00 PM 23.0°F-5.0°C 15.3°F-9.3°C 72% 1.0 mph WNW1.6 kmh WNW 9.0 mph14.5 kmh 30.11 in1019.6 mb 0.00 in0.0 mm 0.00 in0.0 mm 0.00 in0.0 mm
09:15 PM 22.8°F-5.1°C 15.5°F-9.2°C 73% 4.0 mph WNW6.4 kmh WNW 8.0 mph12.9 kmh 30.11 in1019.6 mb 0.00 in0.0 mm 0.00 in0.0 mm 0.00 in0.0 mm
09:30 PM 22.7°F-5.2°C 15.4°F-9.2°C 73% 2.0 mph WNW3.2 kmh WNW 8.0 mph12.9 kmh 30.11 in1019.6 mb 0.00 in0.0 mm 0.00 in0.0 mm 0.00 in0.0 mm
09:45 PM 22.7°F-5.2°C 15.7°F-9.1°C 74% Calm Calm 6.0 mph9.7 kmh 30.12 in1020.0 mb 0.00 in0.0 mm 0.00 in0.0 mm 0.00 in0.0 mm
10:00 PM 22.8°F-5.1°C 15.8°F-9.0°C 74% 2.0 mph W3.2 kmh W 8.0 mph12.9 kmh 30.12 in1020.0 mb 0.00 in0.0 mm 0.00 in0.0 mm 0.00 in0.0 mm
10:15 PM 22.8°F-5.1°C 15.8°F-9.0°C 74% Calm Calm 6.0 mph9.7 kmh 30.12 in1020.0 mb 0.00 in0.0 mm 0.00 in0.0 mm 0.00 in0.0 mm
10:30 PM 22.8°F-5.1°C 16.1°F-8.8°C 75% 2.0 mph NNW3.2 kmh NNW 7.0 mph11.3 kmh 30.13 in1020.3 mb 0.00 in0.0 mm 0.00 in0.0 mm 0.00 in0.0 mm
10:45 PM 22.6°F-5.2°C 16.2°F-8.8°C 76% Calm Calm 6.0 mph9.7 kmh 30.12 in1020.0 mb 0.00 in0.0 mm 0.00 in0.0 mm 0.00 in0.0 mm
11:00 PM 22.4°F-5.3°C 16.0°F-8.9°C 76% 2.0 mph NW3.2 kmh NW 6.0 mph9.7 kmh 30.14 in1020.7 mb 0.00 in0.0 mm 0.00 in0.0 mm 0.00 in0.0 mm
11:15 PM 22.2°F-5.4°C 15.5°F-9.2°C 75% Calm Calm 5.0 mph8.0 kmh 30.14 in1020.7 mb 0.00 in0.0 mm 0.00 in0.0 mm 0.00 in0.0 mm
11:30 PM 22.1°F-5.5°C 15.7°F-9.1°C 76% 3.0 mph NW4.8 kmh NW 5.0 mph8.0 kmh 30.14 in1020.7 mb 0.00 in0.0 mm 0.00 in0.0 mm 0.00 in0.0 mm
11:45 PM 22.0°F-5.6°C 15.6°F-9.1°C 76% Calm Calm 4.0 mph6.4 kmh 30.15 in1021.0 mb 0.00 in0.0 mm 0.00 in0.0 mm 0.00 in0.0 mm